sensor_id;sensor_type;location;lat;lon;timestamp;pressure;altitude;pressure_sealevel;temperature;humidity
50268;BME280;36153;50.960;6.220;2023-03-01T00:01:38;101920.69;;;2.86;52.37
50268;BME280;36153;50.960;6.220;2023-03-01T00:04:39;101918.50;;;2.79;52.39
50268;BME280;36153;50.960;6.220;2023-03-01T00:07:41;101920.47;;;2.70;52.90
50268;BME280;36153;50.960;6.220;2023-03-01T00:10:42;101927.09;;;2.66;52.80
50268;BME280;36153;50.960;6.220;2023-03-01T00:13:45;101939.66;;;2.62;52.99
50268;BME280;36153;50.960;6.220;2023-03-01T00:16:50;101936.19;;;2.61;53.49
50268;BME280;36153;50.960;6.220;2023-03-01T00:19:52;101947.38;;;2.62;53.45
50268;BME280;36153;50.960;6.220;2023-03-01T00:22:53;101957.75;;;2.63;53.86
50268;BME280;36153;50.960;6.220;2023-03-01T00:25:55;101952.59;;;2.63;53.58
50268;BME280;36153;50.960;6.220;2023-03-01T00:28:57;101944.56;;;2.59;53.78
50268;BME280;36153;50.960;6.220;2023-03-01T00:31:59;101941.59;;;2.52;53.99
50268;BME280;36153;50.960;6.220;2023-03-01T00:35:01;101945.97;;;2.53;54.38
50268;BME280;36153;50.960;6.220;2023-03-01T00:38:05;101940.09;;;2.56;54.29
50268;BME280;36153;50.960;6.220;2023-03-01T00:41:11;101934.50;;;2.62;54.08
50268;BME280;36153;50.960;6.220;2023-03-01T00:44:14;101940.63;;;2.64;54.40
50268;BME280;36153;50.960;6.220;2023-03-01T00:47:15;101924.22;;;2.62;54.17
50268;BME280;36153;50.960;6.220;2023-03-01T00:50:16;101930.25;;;2.62;54.11
50268;BME280;36153;50.960;6.220;2023-03-01T00:53:16;101927.75;;;2.50;54.44
50268;BME280;36153;50.960;6.220;2023-03-01T00:56:16;101926.66;;;2.60;54.32
50268;BME280;36153;50.960;6.220;2023-03-01T00:59:17;101924.22;;;2.62;54.24
50268;BME280;36153;50.960;6.220;2023-03-01T01:02:19;101925.78;;;2.60;53.94
50268;BME280;36153;50.960;6.220;2023-03-01T01:05:19;101929.47;;;2.63;54.08
50268;BME280;36153;50.960;6.220;2023-03-01T01:08:22;101919.78;;;2.59;54.08
50268;BME280;36153;50.960;6.220;2023-03-01T01:11:24;101920.66;;;2.60;53.92
50268;BME280;36153;50.960;6.220;2023-03-01T01:14:24;101918.84;;;2.59;53.97
50268;BME280;36153;50.960;6.220;2023-03-01T01:17:25;101911.63;;;2.53;53.72
50268;BME280;36153;50.960;6.220;2023-03-01T01:20:25;101906.97;;;2.47;53.79
50268;BME280;36153;50.960;6.220;2023-03-01T01:23:26;101905.00;;;2.43;54.00
50268;BME280;36153;50.960;6.220;2023-03-01T01:26:29;101899.06;;;2.44;54.08
50268;BME280;36153;50.960;6.220;2023-03-01T01:29:29;101894.41;;;2.38;54.00
50268;BME280;36153;50.960;6.220;2023-03-01T01:32:29;101891.75;;;2.37;53.94
50268;BME280;36153;50.960;6.220;2023-03-01T01:35:30;101892.31;;;2.33;53.87
50268;BME280;36153;50.960;6.220;2023-03-01T01:38:33;101884.63;;;2.33;54.36
50268;BME280;36153;50.960;6.220;2023-03-01T01:41:34;101881.47;;;2.37;54.05
50268;BME280;36153;50.960;6.220;2023-03-01T01:44:34;101869.50;;;2.37;54.38
50268;BME280;36153;50.960;6.220;2023-03-01T01:47:35;101874.16;;;2.43;53.79
50268;BME280;36153;50.960;6.220;2023-03-01T01:50:36;101866.44;;;2.43;53.85
50268;BME280;36153;50.960;6.220;2023-03-01T01:53:39;101866.63;;;2.46;53.67
50268;BME280;36153;50.960;6.220;2023-03-01T01:56:44;101860.31;;;2.41;53.62
50268;BME280;36153;50.960;6.220;2023-03-01T01:59:51;101861.09;;;2.40;53.74
50268;BME280;36153;50.960;6.220;2023-03-01T02:02:57;101857.66;;;2.39;53.70
50268;BME280;36153;50.960;6.220;2023-03-01T02:06:21;101848.63;;;2.33;53.53
50268;BME280;36153;50.960;6.220;2023-03-01T02:09:30;101847.72;;;2.32;53.58
50268;BME280;36153;50.960;6.220;2023-03-01T02:12:31;101842.56;;;2.19;53.94
50268;BME280;36153;50.960;6.220;2023-03-01T02:15:35;101837.81;;;2.12;54.18
50268;BME280;36153;50.960;6.220;2023-03-01T02:18:37;101834.19;;;2.21;54.01
50268;BME280;36153;50.960;6.220;2023-03-01T02:22:07;101828.63;;;2.15;54.53
50268;BME280;36153;50.960;6.220;2023-03-01T02:28:38;101838.41;;;2.21;54.28
50268;BME280;36153;50.960;6.220;2023-03-01T02:31:40;101831.53;;;2.20;54.31
50268;BME280;36153;50.960;6.220;2023-03-01T02:34:43;101829.06;;;2.21;54.43
50268;BME280;36153;50.960;6.220;2023-03-01T02:37:44;101838.50;;;2.09;54.36
50268;BME280;36153;50.960;6.220;2023-03-01T02:40:45;101828.56;;;1.88;54.54
50268;BME280;36153;50.960;6.220;2023-03-01T02:43:46;101829.31;;;1.87;54.92
50268;BME280;36153;50.960;6.220;2023-03-01T02:46:52;101835.78;;;1.94;54.86
50268;BME280;36153;50.960;6.220;2023-03-01T02:49:53;101835.88;;;1.96;55.04
50268;BME280;36153;50.960;6.220;2023-03-01T02:53:19;101840.81;;;1.93;54.89
50268;BME280;36153;50.960;6.220;2023-03-01T02:56:23;101854.63;;;1.95;55.01
50268;BME280;36153;50.960;6.220;2023-03-01T02:59:30;101853.06;;;1.97;54.80
50268;BME280;36153;50.960;6.220;2023-03-01T03:02:32;101844.69;;;1.99;55.03
50268;BME280;36153;50.960;6.220;2023-03-01T03:05:36;101839.84;;;2.04;55.18
50268;BME280;36153;50.960;6.220;2023-03-01T03:08:36;101832.94;;;2.03;55.07
50268;BME280;36153;50.960;6.220;2023-03-01T03:11:37;101834.81;;;2.05;54.83
50268;BME280;36153;50.960;6.220;2023-03-01T03:14:39;101828.72;;;2.03;55.18
50268;BME280;36153;50.960;6.220;2023-03-01T03:17:42;101826.13;;;2.03;54.79
50268;BME280;36153;50.960;6.220;2023-03-01T03:20:43;101829.28;;;1.99;54.73
50268;BME280;36153;50.960;6.220;2023-03-01T03:23:44;101827.41;;;1.97;54.75
50268;BME280;36153;50.960;6.220;2023-03-01T03:26:44;101817.59;;;1.91;54.79
50268;BME280;36153;50.960;6.220;2023-03-01T03:29:45;101816.00;;;1.93;55.13
50268;BME280;36153;50.960;6.220;2023-03-01T03:32:47;101810.19;;;1.96;54.87
50268;BME280;36153;50.960;6.220;2023-03-01T03:35:53;101816.00;;;1.93;54.87
50268;BME280;36153;50.960;6.220;2023-03-01T03:38:54;101816.50;;;1.87;54.99
50268;BME280;36153;50.960;6.220;2023-03-01T03:41:54;101809.38;;;1.83;54.97
50268;BME280;36153;50.960;6.220;2023-03-01T03:44:57;101816.19;;;1.83;54.96
50268;BME280;36153;50.960;6.220;2023-03-01T03:47:57;101814.09;;;1.77;55.00
50268;BME280;36153;50.960;6.220;2023-03-01T03:50:58;101809.75;;;1.76;55.03
50268;BME280;36153;50.960;6.220;2023-03-01T03:53:58;101813.66;;;1.71;55.02
50268;BME280;36153;50.960;6.220;2023-03-01T03:56:59;101806.75;;;1.70;55.12
50268;BME280;36153;50.960;6.220;2023-03-01T03:59:59;101811.66;;;1.67;55.14
50268;BME280;36153;50.960;6.220;2023-03-01T04:02:59;101812.03;;;1.60;55.34
50268;BME280;36153;50.960;6.220;2023-03-01T04:06:01;101812.28;;;1.51;55.18
50268;BME280;36153;50.960;6.220;2023-03-01T04:09:01;101808.41;;;1.44;55.44
50268;BME280;36153;50.960;6.220;2023-03-01T04:12:04;101807.31;;;1.41;55.65
50268;BME280;36153;50.960;6.220;2023-03-01T04:15:07;101799.84;;;1.32;55.99
50268;BME280;36153;50.960;6.220;2023-03-01T04:18:15;101798.88;;;1.30;56.24
50268;BME280;36153;50.960;6.220;2023-03-01T04:21:16;101785.94;;;1.28;56.19
50268;BME280;36153;50.960;6.220;2023-03-01T04:24:16;101789.19;;;1.26;56.24
50268;BME280;36153;50.960;6.220;2023-03-01T04:27:16;101784.63;;;1.22;56.32
50268;BME280;36153;50.960;6.220;2023-03-01T04:30:17;101786.63;;;1.14;56.33
50268;BME280;36153;50.960;6.220;2023-03-01T04:33:18;101777.03;;;1.11;56.61
50268;BME280;36153;50.960;6.220;2023-03-01T04:36:21;101774.28;;;1.08;56.63
50268;BME280;36153;50.960;6.220;2023-03-01T04:39:22;101763.25;;;1.09;56.54
50268;BME280;36153;50.960;6.220;2023-03-01T04:42:22;101774.38;;;1.10;56.90
50268;BME280;36153;50.960;6.220;2023-03-01T04:45:23;101770.16;;;1.10;56.67
50268;BME280;36153;50.960;6.220;2023-03-01T04:48:23;101771.03;;;1.11;56.95
50268;BME280;36153;50.960;6.220;2023-03-01T04:51:24;101770.38;;;1.13;57.12
50268;BME280;36153;50.960;6.220;2023-03-01T04:54:24;101768.09;;;1.18;56.89
50268;BME280;36153;50.960;6.220;2023-03-01T04:57:24;101766.66;;;1.22;56.85
50268;BME280;36153;50.960;6.220;2023-03-01T05:00:25;101763.66;;;1.15;56.85
50268;BME280;36153;50.960;6.220;2023-03-01T05:03:25;101767.81;;;1.13;56.97
50268;BME280;36153;50.960;6.220;2023-03-01T05:06:26;101766.13;;;1.14;56.91
50268;BME280;36153;50.960;6.220;2023-03-01T05:09:26;101775.50;;;1.13;56.84
50268;BME280;36153;50.960;6.220;2023-03-01T05:12:27;101776.94;;;1.10;56.76
50268;BME280;36153;50.960;6.220;2023-03-01T05:15:29;101773.09;;;1.03;56.94
50268;BME280;36153;50.960;6.220;2023-03-01T05:18:31;101767.72;;;1.00;56.88
50268;BME280;36153;50.960;6.220;2023-03-01T05:21:32;101759.59;;;0.94;56.97
50268;BME280;36153;50.960;6.220;2023-03-01T05:24:34;101755.03;;;0.90;56.97
50268;BME280;36153;50.960;6.220;2023-03-01T05:27:35;101752.25;;;0.87;56.84
50268;BME280;36153;50.960;6.220;2023-03-01T05:30:36;101755.03;;;0.78;56.98
50268;BME280;36153;50.960;6.220;2023-03-01T05:33:40;101751.59;;;0.77;57.01
50268;BME280;36153;50.960;6.220;2023-03-01T05:36:47;101748.81;;;0.74;57.24
50268;BME280;36153;50.960;6.220;2023-03-01T05:39:48;101750.38;;;0.72;57.07
50268;BME280;36153;50.960;6.220;2023-03-01T05:42:54;101756.16;;;0.70;57.32
50268;BME280;36153;50.960;6.220;2023-03-01T05:45:57;101765.19;;;0.76;57.31
50268;BME280;36153;50.960;6.220;2023-03-01T05:48:58;101759.94;;;0.75;57.52
50268;BME280;36153;50.960;6.220;2023-03-01T05:52:00;101774.66;;;0.77;57.58
50268;BME280;36153;50.960;6.220;2023-03-01T05:55:01;101763.53;;;0.77;57.38
50268;BME280;36153;50.960;6.220;2023-03-01T05:58:07;101766.00;;;0.75;57.51
50268;BME280;36153;50.960;6.220;2023-03-01T06:01:11;101771.31;;;0.66;57.30
50268;BME280;36153;50.960;6.220;2023-03-01T06:04:14;101770.22;;;0.63;57.66
50268;BME280;36153;50.960;6.220;2023-03-01T06:07:15;101770.22;;;0.63;57.70
50268;BME280;36153;50.960;6.220;2023-03-01T06:10:17;101762.53;;;0.63;57.66
50268;BME280;36153;50.960;6.220;2023-03-01T06:13:18;101754.97;;;0.64;57.71
50268;BME280;36153;50.960;6.220;2023-03-01T06:16:19;101757.63;;;0.66;57.84
50268;BME280;36153;50.960;6.220;2023-03-01T06:19:20;101749.50;;;0.72;57.72
50268;BME280;36153;50.960;6.220;2023-03-01T06:22:21;101750.63;;;0.75;57.75
50268;BME280;36153;50.960;6.220;2023-03-01T06:25:24;101755.94;;;0.78;57.55
50268;BME280;36153;50.960;6.220;2023-03-01T06:28:25;101763.44;;;0.75;57.54
50268;BME280;36153;50.960;6.220;2023-03-01T06:31:26;101763.19;;;0.72;57.61
50268;BME280;36153;50.960;6.220;2023-03-01T06:34:27;101750.72;;;0.77;57.34
50268;BME280;36153;50.960;6.220;2023-03-01T06:37:27;101745.50;;;0.75;57.26
50268;BME280;36153;50.960;6.220;2023-03-01T06:40:29;101748.16;;;0.77;57.33
50268;BME280;36153;50.960;6.220;2023-03-01T06:43:31;101753.03;;;0.85;57.30
50268;BME280;36153;50.960;6.220;2023-03-01T06:46:31;101748.31;;;0.92;57.32
50268;BME280;36153;50.960;6.220;2023-03-01T06:49:32;101749.56;;;0.97;57.33
50268;BME280;36153;50.960;6.220;2023-03-01T06:52:32;101760.47;;;1.06;57.19
50268;BME280;36153;50.960;6.220;2023-03-01T06:55:33;101769.69;;;1.16;57.11
50268;BME280;36153;50.960;6.220;2023-03-01T06:58:34;101766.09;;;1.26;56.97
50268;BME280;36153;50.960;6.220;2023-03-01T07:01:34;101763.84;;;1.30;56.57
50268;BME280;36153;50.960;6.220;2023-03-01T07:04:35;101756.69;;;1.38;56.81
50268;BME280;36153;50.960;6.220;2023-03-01T07:07:35;101750.41;;;1.46;56.41
50268;BME280;36153;50.960;6.220;2023-03-01T07:10:36;101759.63;;;1.56;56.28
50268;BME280;36153;50.960;6.220;2023-03-01T07:13:37;101751.84;;;1.68;56.26
50268;BME280;36153;50.960;6.220;2023-03-01T07:16:37;101754.03;;;1.75;56.07
50268;BME280;36153;50.960;6.220;2023-03-01T07:19:38;101752.69;;;1.80;55.89
50268;BME280;36153;50.960;6.220;2023-03-01T07:22:43;101760.91;;;1.88;55.50
50268;BME280;36153;50.960;6.220;2023-03-01T07:25:43;101763.38;;;2.00;55.23
50268;BME280;36153;50.960;6.220;2023-03-01T07:28:44;101755.72;;;2.13;55.19
50268;BME280;36153;50.960;6.220;2023-03-01T07:31:45;101753.44;;;2.18;54.82
50268;BME280;36153;50.960;6.220;2023-03-01T07:34:46;101747.53;;;2.19;54.90
50268;BME280;36153;50.960;6.220;2023-03-01T07:37:47;101746.63;;;2.32;54.83
50268;BME280;36153;50.960;6.220;2023-03-01T07:40:48;101749.81;;;2.41;54.73
50268;BME280;36153;50.960;6.220;2023-03-01T07:43:49;101741.50;;;2.45;54.58
50268;BME280;36153;50.960;6.220;2023-03-01T07:46:50;101751.28;;;2.51;54.48
50268;BME280;36153;50.960;6.220;2023-03-01T07:49:52;101744.16;;;2.60;54.58
50268;BME280;36153;50.960;6.220;2023-03-01T07:52:52;101740.47;;;2.70;54.33
50268;BME280;36153;50.960;6.220;2023-03-01T07:56:04;101743.63;;;2.79;54.17
50268;BME280;36153;50.960;6.220;2023-03-01T07:59:04;101742.16;;;2.83;54.02
50268;BME280;36153;50.960;6.220;2023-03-01T08:02:05;101742.81;;;2.94;54.12
50268;BME280;36153;50.960;6.220;2023-03-01T08:05:06;101742.03;;;2.95;54.17
50268;BME280;36153;50.960;6.220;2023-03-01T08:08:06;101740.22;;;3.07;54.18
50268;BME280;36153;50.960;6.220;2023-03-01T08:11:09;101743.28;;;3.15;53.92
50268;BME280;36153;50.960;6.220;2023-03-01T08:14:10;101729.91;;;3.20;53.62
50268;BME280;36153;50.960;6.220;2023-03-01T08:17:14;101730.22;;;3.40;53.71
50268;BME280;36153;50.960;6.220;2023-03-01T08:20:14;101741.78;;;3.62;54.05
50268;BME280;36153;50.960;6.220;2023-03-01T08:23:15;101737.38;;;3.74;53.59
50268;BME280;36153;50.960;6.220;2023-03-01T08:26:17;101737.00;;;3.83;53.12
50268;BME280;36153;50.960;6.220;2023-03-01T08:29:18;101735.50;;;3.71;52.79
50268;BME280;36153;50.960;6.220;2023-03-01T08:32:19;101736.84;;;3.95;52.89
50268;BME280;36153;50.960;6.220;2023-03-01T08:35:20;101733.47;;;4.25;53.19
50268;BME280;36153;50.960;6.220;2023-03-01T08:38:20;101722.06;;;4.37;53.04
50268;BME280;36153;50.960;6.220;2023-03-01T08:41:21;101732.03;;;4.31;52.43
50268;BME280;36153;50.960;6.220;2023-03-01T08:44:21;101732.38;;;4.37;51.99
50268;BME280;36153;50.960;6.220;2023-03-01T08:47:21;101732.72;;;4.58;52.14
50268;BME280;36153;50.960;6.220;2023-03-01T08:50:23;101722.41;;;4.58;51.25
50268;BME280;36153;50.960;6.220;2023-03-01T08:53:24;101726.94;;;4.78;51.03
50268;BME280;36153;50.960;6.220;2023-03-01T08:56:24;101718.44;;;4.96;50.51
50268;BME280;36153;50.960;6.220;2023-03-01T08:59:25;101714.34;;;5.00;50.46
50268;BME280;36153;50.960;6.220;2023-03-01T09:02:26;101715.59;;;5.08;49.91
50268;BME280;36153;50.960;6.220;2023-03-01T09:05:26;101721.44;;;5.20;49.91
50268;BME280;36153;50.960;6.220;2023-03-01T09:08:27;101721.44;;;5.20;49.09
50268;BME280;36153;50.960;6.220;2023-03-01T09:11:28;101719.69;;;5.19;48.99
50268;BME280;36153;50.960;6.220;2023-03-01T09:14:29;101720.25;;;5.13;48.66
50268;BME280;36153;50.960;6.220;2023-03-01T09:17:30;101718.69;;;5.34;48.81
50268;BME280;36153;50.960;6.220;2023-03-01T09:20:31;101719.34;;;5.46;48.07
50268;BME280;36153;50.960;6.220;2023-03-01T09:23:31;101720.50;;;5.69;47.77
50268;BME280;36153;50.960;6.220;2023-03-01T09:26:32;101717.00;;;6.02;47.00
50268;BME280;36153;50.960;6.220;2023-03-01T09:29:32;101715.97;;;6.16;46.71
50268;BME280;36153;50.960;6.220;2023-03-01T09:32:32;101720.34;;;6.35;46.19
50268;BME280;36153;50.960;6.220;2023-03-01T09:35:33;101713.72;;;6.22;46.20
50268;BME280;36153;50.960;6.220;2023-03-01T09:38:33;101705.97;;;6.40;46.13
50268;BME280;36153;50.960;6.220;2023-03-01T09:41:50;101703.94;;;6.53;46.10
50268;BME280;36153;50.960;6.220;2023-03-01T09:45:00;101706.88;;;6.60;45.80
50268;BME280;36153;50.960;6.220;2023-03-01T09:48:03;101699.06;;;6.96;46.12
50268;BME280;36153;50.960;6.220;2023-03-01T09:51:10;101693.56;;;6.90;45.78
50268;BME280;36153;50.960;6.220;2023-03-01T09:54:13;101695.72;;;7.18;45.32
50268;BME280;36153;50.960;6.220;2023-03-01T10:00:56;101678.59;;;7.42;45.06
50268;BME280;36153;50.960;6.220;2023-03-01T10:04:12;101677.63;;;7.59;44.05
50268;BME280;36153;50.960;6.220;2023-03-01T10:10:43;101672.44;;;7.80;43.54
50268;BME280;36153;50.960;6.220;2023-03-01T10:14:03;101676.25;;;7.89;42.91
50268;BME280;36153;50.960;6.220;2023-03-01T10:17:26;101676.75;;;7.80;43.30
50268;BME280;36153;50.960;6.220;2023-03-01T10:20:42;101677.44;;;7.76;42.44
50268;BME280;36153;50.960;6.220;2023-03-01T10:23:44;101668.22;;;7.61;42.25
50268;BME280;36153;50.960;6.220;2023-03-01T10:26:47;101665.34;;;7.97;42.45
50268;BME280;36153;50.960;6.220;2023-03-01T10:32:53;101660.25;;;8.43;42.41
50268;BME280;36153;50.960;6.220;2023-03-01T10:35:54;101654.50;;;8.50;41.96
50268;BME280;36153;50.960;6.220;2023-03-01T10:38:56;101643.25;;;8.96;41.49
50268;BME280;36153;50.960;6.220;2023-03-01T10:42:01;101630.09;;;9.16;40.52
50268;BME280;36153;50.960;6.220;2023-03-01T10:48:27;101634.41;;;9.15;40.63
50268;BME280;36153;50.960;6.220;2023-03-01T10:51:28;101628.75;;;9.27;39.91
50268;BME280;36153;50.960;6.220;2023-03-01T10:54:30;101632.28;;;9.29;39.31
50268;BME280;36153;50.960;6.220;2023-03-01T10:57:39;101626.78;;;9.20;39.54
50268;BME280;36153;50.960;6.220;2023-03-01T11:00:52;101624.34;;;9.25;40.09
50268;BME280;36153;50.960;6.220;2023-03-01T11:07:05;101611.28;;;9.49;40.43
50268;BME280;36153;50.960;6.220;2023-03-01T11:10:11;101607.66;;;9.69;39.31
50268;BME280;36153;50.960;6.220;2023-03-01T11:13:19;101599.97;;;9.74;39.08
50268;BME280;36153;50.960;6.220;2023-03-01T11:16:34;101593.13;;;9.76;38.29
50268;BME280;36153;50.960;6.220;2023-03-01T11:19:35;101593.25;;;9.81;39.27
50268;BME280;36153;50.960;6.220;2023-03-01T11:22:36;101590.81;;;10.13;39.50
50268;BME280;36153;50.960;6.220;2023-03-01T11:25:40;101588.91;;;10.07;39.59
50268;BME280;36153;50.960;6.220;2023-03-01T11:28:42;101582.13;;;9.85;39.67
50268;BME280;36153;50.960;6.220;2023-03-01T11:31:45;101578.84;;;10.47;39.15
50268;BME280;36153;50.960;6.220;2023-03-01T11:34:51;101576.00;;;9.83;38.12
50268;BME280;36153;50.960;6.220;2023-03-01T11:38:26;101575.00;;;10.06;38.08
50268;BME280;36153;50.960;6.220;2023-03-01T11:41:30;101580.50;;;10.45;38.53
50268;BME280;36153;50.960;6.220;2023-03-01T11:44:34;101576.47;;;10.86;38.45
50268;BME280;36153;50.960;6.220;2023-03-01T11:47:45;101566.72;;;10.79;37.75
50268;BME280;36153;50.960;6.220;2023-03-01T11:50:48;101583.78;;;10.68;37.09
50268;BME280;36153;50.960;6.220;2023-03-01T11:54:02;101566.72;;;10.79;36.97
50268;BME280;36153;50.960;6.220;2023-03-01T13:50:58;101436.72;;;12.00;32.94
50268;BME280;36153;50.960;6.220;2023-03-01T13:54:33;101435.72;;;11.94;33.61
50268;BME280;36153;50.960;6.220;2023-03-01T13:57:36;101445.53;;;11.67;32.35
50268;BME280;36153;50.960;6.220;2023-03-01T14:00:40;101445.88;;;11.82;33.06
50268;BME280;36153;50.960;6.220;2023-03-01T14:03:41;101446.75;;;11.83;33.75
50268;BME280;36153;50.960;6.220;2023-03-01T14:06:42;101437.25;;;11.86;32.83
50268;BME280;36153;50.960;6.220;2023-03-01T14:09:44;101433.34;;;12.05;32.31
50268;BME280;36153;50.960;6.220;2023-03-01T14:13:04;101422.41;;;12.25;32.74
50268;BME280;36153;50.960;6.220;2023-03-01T14:19:28;101422.81;;;12.02;31.72
50268;BME280;36153;50.960;6.220;2023-03-01T14:22:34;101417.56;;;11.99;30.90
50268;BME280;36153;50.960;6.220;2023-03-01T14:30:30;101404.53;;;12.01;31.85
50268;BME280;36153;50.960;6.220;2023-03-01T14:39:15;101386.19;;;11.96;30.83
50268;BME280;36153;50.960;6.220;2023-03-01T14:47:49;101374.28;;;12.10;31.28
